Time;durP1;ratioP1;P1;durP2;ratioP2;P2;SDS_P1;SDS_P2;PMS_P1;PMS_P2;Temp;Humidity;BMP_temperature;BMP_pressure;BME280_temperature;BME280_humidity;BME280_pressure;Samples;Min_cycle;Max_cycle;Signal;HPM_P1;HPM_P2
2023/04/02 06:07:24;;;;;;;2.30;1.27;;;5.30;99.90;;;;;;5173430;27;20447;-74
2023/04/02 06:15:37;;;;;;;1.73;1.50;;;5.60;99.90;;;;;;5132058;27;20289;-75
2023/04/02 06:20:59;;;;;;;3.60;1.90;;;5.70;99.90;;;;;;5112004;27;21074;-75
2023/04/02 06:27:18;;;;;;;1.60;1.50;;;5.70;99.90;;;;;;5173813;27;20277;-74
2023/04/02 06:31:56;;;;;;;1.23;1.13;;;6.00;99.90;;;;;;5098163;27;1527847;-74
2023/04/02 06:37:12;;;;;;;2.23;1.00;;;6.00;99.90;;;;;;5173987;27;20277;-75
2023/04/02 06:42:00;;;;;;;2.67;1.47;;;6.50;99.90;;;;;;5173727;27;20270;-74
2023/04/02 06:46:26;;;;;;;1.63;1.50;;;6.30;99.90;;;;;;5173923;27;20819;-75
2023/04/02 06:50:17;;;;;;;1.70;1.60;;;6.50;99.90;;;;;;5173813;27;20608;-75
2023/04/02 06:53:47;;;;;;;1.63;1.40;;;6.80;99.90;;;;;;5131638;27;20284;-76
2023/04/02 06:57:47;;;;;;;1.30;1.20;;;6.90;99.90;;;;;;5132658;27;20768;-76
2023/04/02 07:01:57;;;;;;;2.77;1.97;;;6.90;99.90;;;;;;5132389;27;20272;-75
2023/04/02 07:05:48;;;;;;;1.73;1.43;;;7.30;99.90;;;;;;5132329;27;20777;-76
2023/04/02 07:09:44;;;;;;;1.80;1.00;;;7.50;99.90;;;;;;5132273;27;20270;-76
2023/04/02 07:12:11;;;;;;;2.47;1.50;;;7.50;99.90;;;;;;5131659;28;20188;-76
2023/04/02 07:15:51;;;;;;;1.07;0.97;;;7.60;99.90;;;;;;5111545;27;20563;-75
2023/04/02 07:18:29;;;;;;;2.37;0.97;;;7.60;99.90;;;;;;5111495;28;20184;-75
2023/04/02 07:20:56;;;;;;;1.43;1.30;;;8.00;99.90;;;;;;5111363;28;20254;-75
2023/04/02 07:23:22;;;;;;;1.27;1.17;;;8.50;99.90;;;;;;5111170;28;20207;-75
2023/04/02 07:25:49;;;;;;;1.20;1.10;;;8.50;99.90;;;;;;5111296;28;20196;-75
2023/04/02 07:28:15;;;;;;;2.60;1.10;;;8.90;99.90;;;;;;5111395;28;20171;-75
2023/04/02 07:30:42;;;;;;;0.77;0.77;;;8.50;99.90;;;;;;5110078;28;20205;-75
2023/04/02 07:33:16;;;;;;;3.20;1.60;;;8.70;99.90;;;;;;5110935;28;20197;-75
2023/04/02 07:35:42;;;;;;;1.50;0.80;;;9.70;99.90;;;;;;5111138;28;20196;-75
2023/04/02 07:38:08;;;;;;;2.17;1.40;;;9.30;99.90;;;;;;5110888;28;20176;-75
2023/04/02 07:40:34;;;;;;;1.77;0.80;;;9.10;99.90;;;;;;5111121;28;20211;-75
2023/04/02 07:43:00;;;;;;;6.33;2.70;;;9.40;99.90;;;;;;5110821;28;20206;-76
2023/04/02 07:45:26;;;;;;;2.93;1.80;;;9.70;99.90;;;;;;5110939;28;20616;-75
2023/04/02 07:47:52;;;;;;;2.33;1.90;;;9.70;99.90;;;;;;5110738;28;20255;-75
2023/04/02 07:50:18;;;;;;;2.57;1.60;;;9.30;99.90;;;;;;5110837;28;20267;-75
2023/04/02 07:52:44;;;;;;;1.00;0.90;;;9.00;99.90;;;;;;5109216;28;20219;-76
2023/04/02 07:55:12;;;;;;;2.40;1.40;;;8.80;99.90;;;;;;5110695;28;20664;-75
2023/04/02 07:57:40;;;;;;;1.50;0.93;;;8.70;99.90;;;;;;5110645;28;20180;-75
2023/04/02 08:00:09;;;;;;;1.20;1.00;;;8.50;99.90;;;;;;5109982;28;20176;-75
2023/04/02 08:02:35;;;;;;;1.20;0.70;;;8.40;99.90;;;;;;5110331;28;20198;-75
2023/04/02 08:05:00;;;;;;;0.77;0.63;;;8.50;99.90;;;;;;5110357;28;20191;-75
2023/04/02 08:07:27;;;;;;;2.67;1.20;;;8.40;99.90;;;;;;5110467;28;20559;-75
2023/04/02 08:09:52;;;;;;;0.90;0.70;;;8.40;99.90;;;;;;5110543;28;20172;-75
2023/04/02 08:12:18;;;;;;;1.50;1.20;;;8.40;99.90;;;;;;5110244;28;20183;-75
2023/04/02 08:14:44;;;;;;;1.47;0.70;;;8.50;99.90;;;;;;5110031;28;20211;-75
2023/04/02 08:17:09;;;;;;;1.83;0.90;;;8.50;99.90;;;;;;5110542;28;20535;-75
2023/04/02 08:19:35;;;;;;;1.00;0.80;;;8.40;99.90;;;;;;5110307;28;20637;-75
2023/04/02 08:22:01;;;;;;;0.97;0.70;;;8.30;99.90;;;;;;5110151;28;20641;-75
2023/04/02 08:24:26;;;;;;;1.03;0.70;;;8.30;99.90;;;;;;5110137;28;20248;-75
2023/04/02 08:26:52;;;;;;;1.30;0.70;;;8.40;99.90;;;;;;5098120;28;20175;-75
2023/04/02 08:29:18;;;;;;;1.27;0.80;;;8.30;99.90;;;;;;5096626;28;20183;-75
2023/04/02 08:31:45;;;;;;;2.70;1.10;;;8.20;99.90;;;;;;5096438;28;20175;-75
2023/04/02 08:34:11;;;;;;;3.83;2.17;;;8.20;99.90;;;;;;5096521;28;20648;-75
2023/04/02 08:36:39;;;;;;;1.60;1.10;;;8.20;99.90;;;;;;5096499;28;20175;-75
2023/04/02 08:39:09;;;;;;;2.53;1.70;;;8.20;99.90;;;;;;5096467;28;20210;-75
2023/04/02 08:41:46;;;;;;;1.80;1.00;;;8.30;99.90;;;;;;5096488;28;20249;-75
2023/04/02 08:44:35;;;;;;;3.30;1.27;;;8.40;99.90;;;;;;5096256;28;20184;-75
2023/04/02 08:47:08;;;;;;;1.87;1.40;;;8.40;99.90;;;;;;5096321;28;20166;-75
2023/04/02 08:49:47;;;;;;;6.53;2.97;;;8.40;99.90;;;;;;5096343;28;20171;-76
2023/04/02 08:52:35;;;;;;;3.80;1.90;;;8.50;99.90;;;;;;5094603;28;20250;-75
2023/04/02 08:55:04;;;;;;;5.27;2.87;;;8.50;99.90;;;;;;5094859;28;20632;-75
2023/04/02 08:57:38;;;;;;;3.90;1.60;;;8.50;99.90;;;;;;5096023;28;20168;-75
2023/04/02 09:00:12;;;;;;;3.43;1.67;;;8.70;99.90;;;;;;5096139;28;20168;-77
2023/04/02 09:02:48;;;;;;;5.77;1.30;;;8.80;99.90;;;;;;5094403;28;20168;-75
2023/04/02 09:05:28;;;;;;;3.83;2.97;;;8.80;99.90;;;;;;5095832;28;20201;-75
2023/04/02 09:07:57;;;;;;;1.73;1.20;;;8.80;99.90;;;;;;5095986;28;20175;-75
2023/04/02 09:10:43;;;;;;;2.53;1.47;;;8.90;99.90;;;;;;5095868;28;20621;-75
2023/04/02 09:13:22;;;;;;;2.37;1.20;;;9.00;99.90;;;;;;5095436;28;20188;-75
2023/04/02 09:15:52;;;;;;;2.93;1.17;;;8.90;99.90;;;;;;5095475;28;20765;-75
2023/04/02 09:18:19;;;;;;;2.07;1.50;;;8.80;99.90;;;;;;5095629;28;20168;-75
2023/04/02 09:20:46;;;;;;;4.00;0.77;;;8.80;99.90;;;;;;5095642;28;20524;-75
2023/04/02 09:23:30;;;;;;;1.50;1.20;;;9.10;99.90;;;;;;5095638;28;20515;-75
2023/04/02 09:25:56;;;;;;;3.73;1.33;;;9.10;99.90;;;;;;5095803;28;20179;-75
2023/04/02 09:28:25;;;;;;;0.87;0.80;;;9.10;99.90;;;;;;5095314;28;20171;-75
2023/04/02 09:31:19;;;;;;;1.57;1.10;;;9.10;99.90;;;;;;5095428;28;20626;-75
2023/04/02 09:33:47;;;;;;;1.83;1.13;;;9.40;99.90;;;;;;5094906;28;20674;-75
2023/04/02 09:36:27;;;;;;;6.60;4.00;;;9.40;99.90;;;;;;5093869;28;20175;-75
2023/04/02 09:39:05;;;;;;;4.60;2.50;;;9.50;99.90;;;;;;5093110;28;20215;-76
2023/04/02 09:41:32;;;;;;;1.30;1.20;;;9.40;99.90;;;;;;5095346;28;20192;-76
2023/04/02 09:44:15;;;;;;;2.07;1.03;;;9.40;99.90;;;;;;5094756;28;20563;-75
2023/04/02 09:47:02;;;;;;;4.20;0.90;;;9.40;99.90;;;;;;5094978;28;20587;-76
2023/04/02 09:49:36;;;;;;;1.43;0.80;;;9.50;99.90;;;;;;5094992;28;20199;-76
2023/04/02 09:52:20;;;;;;;2.97;2.00;;;9.70;99.90;;;;;;5093410;28;20180;-76
2023/04/02 09:55:04;;;;;;;2.40;1.80;;;9.90;99.90;;;;;;5094568;28;20231;-76
2023/04/02 09:57:32;;;;;;;2.57;0.80;;;9.80;99.90;;;;;;5094920;28;20164;-76
2023/04/02 10:00:15;;;;;;;2.83;1.27;;;9.70;99.90;;;;;;5094724;28;20160;-76
2023/04/02 10:02:42;;;;;;;2.67;1.80;;;9.40;99.90;;;;;;5094461;28;20213;-75
2023/04/02 10:05:26;;;;;;;2.80;1.90;;;9.30;99.90;;;;;;5093298;28;20549;-75
2023/04/02 10:07:53;;;;;;;2.23;1.70;;;9.00;99.90;;;;;;5094668;28;20255;-76
2023/04/02 10:10:35;;;;;;;1.93;1.23;;;8.90;99.90;;;;;;5094303;28;20531;-75
2023/04/02 10:13:13;;;;;;;1.57;0.97;;;8.90;99.90;;;;;;5094063;28;20229;-75
2023/04/02 10:16:05;;;;;;;0.87;0.77;;;8.70;99.90;;;;;;5093827;28;20286;-75
2023/04/02 10:18:50;;;;;;;1.63;0.90;;;8.70;99.90;;;;;;5094259;28;20655;-75
2023/04/02 10:21:24;;;;;;;3.90;0.80;;;8.70;99.90;;;;;;5094271;28;20165;-75
2023/04/02 10:23:49;;;;;;;2.10;1.00;;;9.00;99.90;;;;;;5093707;28;20176;-75
2023/04/02 10:26:34;;;;;;;1.60;1.00;;;9.00;99.90;;;;;;5094198;28;20566;-75
2023/04/02 10:29:06;;;;;;;1.10;1.00;;;9.40;99.90;;;;;;5094776;28;20660;-75
2023/04/02 10:31:46;;;;;;;2.17;1.60;;;10.20;99.90;;;;;;5094262;28;20172;-76
2023/04/02 10:34:36;;;;;;;4.53;2.10;;;10.50;99.90;;;;;;5094079;28;20200;-76
2023/04/02 10:37:43;;;;;;;6.77;1.60;;;10.80;99.90;;;;;;5075475;28;20290;-76
2023/04/02 10:40:19;;;;;;;1.90;0.87;;;10.90;99.90;;;;;;5094338;28;20457;-75
2023/04/02 10:43:11;;;;;;;3.73;1.87;;;10.60;99.90;;;;;;5093925;28;20657;-76
2023/04/02 10:46:05;;;;;;;1.10;0.97;;;10.40;99.90;;;;;;5094064;28;20219;-76
2023/04/02 10:48:52;;;;;;;2.23;1.10;;;10.00;99.90;;;;;;5093855;28;20175;-75
2023/04/02 10:51:47;;;;;;;2.17;1.03;;;9.80;99.90;;;;;;5093924;28;20244;-76
2023/04/02 10:54:48;;;;;;;6.93;3.40;;;9.50;99.90;;;;;;5093883;28;20200;-75
2023/04/02 10:57:29;;;;;;;3.40;1.50;;;9.50;99.90;;;;;;5094054;28;20164;-76
2023/04/02 11:00:04;;;;;;;2.33;1.37;;;9.50;99.90;;;;;;5092609;28;20191;-76
2023/04/02 11:02:33;;;;;;;2.47;1.40;;;9.50;99.90;;;;;;5092331;28;20198;-76
2023/04/02 11:05:10;;;;;;;1.70;1.13;;;9.60;99.90;;;;;;5093810;28;20271;-75
2023/04/02 11:07:47;;;;;;;2.17;1.40;;;9.80;99.90;;;;;;5093768;28;20210;-76
2023/04/02 11:10:18;;;;;;;1.60;0.90;;;9.90;99.90;;;;;;5093818;28;20176;-75
2023/04/02 11:13:08;;;;;;;2.00;0.90;;;9.90;99.90;;;;;;5093741;28;20224;-76
2023/04/02 11:15:35;;;;;;;3.80;1.60;;;10.00;99.90;;;;;;5093630;28;20208;-76
2023/04/02 11:18:00;;;;;;;2.73;1.20;;;10.10;99.90;;;;;;5093660;28;20692;-75
2023/04/02 11:20:46;;;;;;;1.27;1.10;;;10.30;99.90;;;;;;5093703;28;20196;-76
2023/04/02 11:23:17;;;;;;;2.27;1.17;;;10.50;99.90;;;;;;5092376;28;20176;-76
2023/04/02 11:25:44;;;;;;;2.30;1.17;;;10.40;99.90;;;;;;5093693;28;20283;-75
2023/04/02 11:28:29;;;;;;;2.10;1.40;;;10.40;99.90;;;;;;5093682;28;20314;-76
2023/04/02 11:30:56;;;;;;;3.27;1.07;;;10.80;99.90;;;;;;5092320;28;20175;-76
2023/04/02 11:33:38;;;;;;;1.97;1.03;;;11.00;99.90;;;;;;5093482;28;20665;-75
2023/04/02 11:36:42;;;;;;;0.60;0.60;;;11.30;99.90;;;;;;5092302;28;20180;-75
2023/04/02 11:39:10;;;;;;;0.60;0.47;;;11.40;99.90;;;;;;5093272;28;20199;-77
2023/04/02 11:41:57;;;;;;;1.50;1.00;;;11.80;99.90;;;;;;5093751;28;20657;-76
2023/04/02 11:44:23;;;;;;;0.80;0.63;;;12.60;99.90;;;;;;5093696;28;20203;-76
2023/04/02 11:46:50;;;;;;;1.83;0.90;;;13.50;99.90;;;;;;5093422;28;20173;-76
2023/04/02 11:50:04;;;;;;;3.33;1.50;;;13.30;99.90;;;;;;5092068;28;20180;-76
2023/04/02 11:52:44;;;;;;;3.93;2.20;;;13.00;99.90;;;;;;5086194;28;20195;-76
2023/04/02 11:55:33;;;;;;;2.63;0.77;;;14.10;99.90;;;;;;5091811;28;20255;-76
2023/04/02 11:57:59;;;;;;;2.30;1.63;;;13.80;99.90;;;;;;5091842;28;20646;-76
2023/04/02 12:00:49;;;;;;;1.23;0.80;;;13.30;99.90;;;;;;5093510;28;20199;-76
2023/04/02 12:03:28;;;;;;;3.33;2.30;;;13.10;99.90;;;;;;5096925;28;20169;-76
2023/04/02 12:05:58;;;;;;;4.77;2.07;;;13.40;99.90;;;;;;5097005;28;20209;-76
2023/04/02 12:08:40;;;;;;;2.20;1.47;;;13.20;99.90;;;;;;5095639;28;20649;-76
2023/04/02 12:11:07;;;;;;;1.10;0.97;;;12.70;99.90;;;;;;5095815;28;20533;-78
2023/04/02 12:13:53;;;;;;;1.40;1.20;;;12.10;99.90;;;;;;5096710;28;20179;-76
2023/04/02 12:16:20;;;;;;;1.33;1.00;;;11.60;99.90;;;;;;5096879;28;20180;-76
2023/04/02 12:18:52;;;;;;;2.43;1.70;;;11.40;99.90;;;;;;5096919;28;20170;-76
2023/04/02 12:21:21;;;;;;;3.83;2.33;;;11.30;99.90;;;;;;5096652;28;20663;-76
2023/04/02 12:23:50;;;;;;;3.87;2.53;;;11.00;99.90;;;;;;5096588;28;20169;-75
2023/04/02 12:26:36;;;;;;;5.77;2.90;;;11.00;99.90;;;;;;5096776;28;20169;-75
2023/04/02 12:29:27;;;;;;;1.30;1.20;;;11.10;99.90;;;;;;5095343;28;20172;-75
2023/04/02 12:31:57;;;;;;;2.23;0.87;;;10.80;99.90;;;;;;5096499;28;20225;-75
2023/04/02 12:34:25;;;;;;;5.00;0.90;;;10.60;99.90;;;;;;5096621;28;20200;-76
2023/04/02 12:37:02;;;;;;;6.83;1.30;;;10.60;99.90;;;;;;5096490;28;20546;-76
2023/04/02 12:39:31;;;;;;;0.80;0.80;;;10.60;99.90;;;;;;5096450;28;20178;-75
2023/04/02 12:41:56;;;;;;;1.60;0.97;;;10.70;99.90;;;;;;5095032;28;20172;-75
2023/04/02 12:44:25;;;;;;;0.67;0.60;;;10.70;99.90;;;;;;5096242;28;20304;-75
2023/04/02 12:46:52;;;;;;;4.43;0.70;;;10.80;99.90;;;;;;5095014;28;20187;-76
2023/04/02 12:49:35;;;;;;;1.83;1.20;;;10.90;99.90;;;;;;5095056;28;20187;-76
2023/04/02 12:52:07;;;;;;;2.30;1.50;;;11.00;99.90;;;;;;5096037;28;20255;-76
2023/04/02 12:54:42;;;;;;;2.10;1.77;;;11.40;99.90;;;;;;5094738;28;20213;-75
2023/04/02 12:57:26;;;;;;;1.30;1.10;;;12.10;99.90;;;;;;5096433;28;20180;-76
2023/04/02 12:59:53;;;;;;;3.23;0.83;;;13.30;99.90;;;;;;5096120;28;20176;-76
2023/04/02 13:02:23;;;;;;;0.90;0.63;;;12.90;99.90;;;;;;5094657;28;20630;-75
2023/04/02 13:04:54;;;;;;;3.20;1.90;;;12.50;99.90;;;;;;5096111;28;20197;-76
2023/04/02 13:07:24;;;;;;;1.33;0.90;;;12.20;99.90;;;;;;5095990;28;20172;-76
2023/04/02 13:10:02;;;;;;;2.13;1.43;;;11.80;99.90;;;;;;5094853;28;20225;-76
2023/04/02 13:12:37;;;;;;;2.13;1.20;;;11.60;99.90;;;;;;5095745;28;20179;-75
2023/04/02 13:15:19;;;;;;;1.30;1.00;;;11.60;99.90;;;;;;5095559;28;20231;-76
2023/04/02 13:17:47;;;;;;;1.83;1.47;;;11.80;99.90;;;;;;5096055;28;20622;-76
2023/04/02 13:20:32;;;;;;;1.43;1.20;;;12.00;99.90;;;;;;5094541;28;20180;-76
2023/04/02 13:22:59;;;;;;;1.63;1.10;;;12.00;99.90;;;;;;5094113;28;20179;-76
2023/04/02 13:25:35;;;;;;;1.83;1.10;;;12.00;99.90;;;;;;5095677;28;20241;-76
2023/04/02 13:28:01;;;;;;;2.53;1.40;;;12.50;99.90;;;;;;5095415;28;20178;-76
2023/04/02 13:30:27;;;;;;;1.17;0.80;;;12.80;99.90;;;;;;5095484;28;20168;-76
2023/04/02 13:32:54;;;;;;;2.77;1.10;;;13.10;99.90;;;;;;5095392;28;20556;-76
2023/04/02 13:35:20;;;;;;;0.70;0.70;;;13.40;99.90;;;;;;5095266;28;20203;-76
2023/04/02 13:37:46;;;;;;;0.83;0.80;;;13.40;99.90;;;;;;5095517;28;20164;-77
2023/04/02 13:40:15;;;;;;;0.83;0.60;;;14.00;99.90;;;;;;5095248;28;20170;-76
2023/04/02 13:42:42;;;;;;;0.50;0.50;;;13.70;99.90;;;;;;5095253;28;20174;-76
2023/04/02 13:45:21;;;;;;;2.67;0.50;;;12.30;99.90;;;;;;5095296;28;20642;-75
2023/04/02 13:47:47;;;;;;;0.90;0.70;;;11.40;99.90;;;;;;5095253;28;20272;-76
2023/04/02 13:50:18;;;;;;;1.00;0.70;;;10.80;99.90;;;;;;5095380;28;20176;-76
2023/04/02 13:52:44;;;;;;;2.07;0.63;;;10.50;99.90;;;;;;5093589;28;20533;-76
2023/04/02 13:55:10;;;;;;;1.63;0.70;;;10.40;99.90;;;;;;5094968;28;20283;-77
2023/04/02 13:57:36;;;;;;;0.80;0.80;;;10.30;99.90;;;;;;5095090;28;20247;-78
2023/04/02 14:00:03;;;;;;;0.53;0.53;;;10.40;99.90;;;;;;5095163;28;20192;-77
2023/04/02 14:02:30;;;;;;;1.37;0.70;;;10.30;99.90;;;;;;5094801;28;20173;-76
2023/04/02 14:05:04;;;;;;;0.40;0.40;;;10.20;99.90;;;;;;5093476;28;20287;-77
2023/04/02 14:07:51;;;;;;;0.50;0.50;;;10.20;99.90;;;;;;5094884;28;20245;-76
2023/04/02 14:10:41;;;;;;;2.80;0.70;;;10.20;99.90;;;;;;5095089;28;20199;-77
2023/04/02 14:13:33;;;;;;;1.30;0.80;;;10.30;99.90;;;;;;5093194;28;20667;-76
2023/04/02 14:16:34;;;;;;;1.17;0.83;;;10.30;99.90;;;;;;5095133;28;20195;-76
2023/04/02 14:19:12;;;;;;;1.97;0.80;;;10.40;99.90;;;;;;5094528;28;20216;-76
2023/04/02 14:22:23;;;;;;;2.53;1.53;;;10.50;99.90;;;;;;5094702;28;20168;-76
2023/04/02 14:25:07;;;;;;;1.97;1.30;;;10.40;99.90;;;;;;5093993;28;20521;-76
2023/04/02 14:27:51;;;;;;;3.53;1.83;;;10.50;99.90;;;;;;5094440;28;20180;-76
2023/04/02 14:30:24;;;;;;;1.87;0.93;;;10.60;99.90;;;;;;5094499;28;20649;-76
2023/04/02 14:33:26;;;;;;;2.73;1.30;;;10.70;99.90;;;;;;5094383;28;20641;-77
2023/04/02 14:36:03;;;;;;;1.37;0.90;;;10.80;99.90;;;;;;5061163;28;20223;-76
2023/04/02 14:38:39;;;;;;;0.90;0.80;;;10.80;99.90;;;;;;5094428;28;20271;-76
2023/04/02 14:41:30;;;;;;;1.20;1.00;;;10.70;99.90;;;;;;5093134;28;20262;-76
2023/04/02 14:44:05;;;;;;;2.47;0.70;;;10.60;99.90;;;;;;5094335;28;20594;-76
2023/04/02 14:46:34;;;;;;;1.13;0.70;;;10.50;99.90;;;;;;5094570;28;20168;-76
2023/04/02 14:49:30;;;;;;;0.80;0.73;;;10.40;99.90;;;;;;5094261;28;20168;-76
2023/04/02 14:51:58;;;;;;;4.17;1.10;;;10.50;99.90;;;;;;5094020;28;20164;-76
2023/04/02 14:54:30;;;;;;;1.57;0.80;;;10.60;99.90;;;;;;5094025;28;20204;-76
2023/04/02 14:57:04;;;;;;;1.30;0.80;;;10.70;99.90;;;;;;5094334;28;20172;-76
2023/04/02 14:59:41;;;;;;;1.27;0.90;;;11.10;99.90;;;;;;5094224;28;20164;-77
2023/04/02 15:02:25;;;;;;;1.43;1.20;;;11.60;99.90;;;;;;5092628;28;20203;-77
2023/04/02 15:04:59;;;;;;;1.53;1.30;;;13.00;99.90;;;;;;5093824;28;20287;-77
2023/04/02 15:07:32;;;;;;;1.20;1.00;;;13.00;99.90;;;;;;5094001;28;20175;-77
2023/04/02 15:10:09;;;;;;;1.90;1.07;;;12.60;99.90;;;;;;5093737;28;20172;-76
2023/04/02 15:12:39;;;;;;;3.63;1.30;;;12.30;99.90;;;;;;5093771;28;20530;-77
2023/04/02 15:15:37;;;;;;;1.80;1.30;;;11.90;99.90;;;;;;5093622;28;20232;-77
2023/04/02 15:18:08;;;;;;;1.37;1.20;;;11.70;99.90;;;;;;5093979;28;20172;-77
2023/04/02 15:20:51;;;;;;;2.63;1.17;;;11.20;99.90;;;;;;5094017;28;20169;-77
2023/04/02 15:23:31;;;;;;;0.83;0.83;;;10.40;99.90;;;;;;5093657;28;20576;-76
2023/04/02 15:26:06;;;;;;;0.77;0.70;;;10.10;99.90;;;;;;5093830;28;20245;-76
2023/04/02 15:28:39;;;;;;;1.47;0.90;;;9.80;99.90;;;;;;5093722;28;20569;-77
2023/04/02 15:31:11;;;;;;;0.80;0.80;;;9.60;99.90;;;;;;5093907;28;20174;-77
2023/04/02 15:33:44;;;;;;;0.70;0.70;;;9.40;99.90;;;;;;5093670;28;20174;-76
2023/04/02 15:36:40;;;;;;;1.13;0.60;;;9.20;99.90;;;;;;5095453;28;20172;-76
2023/04/02 15:39:16;;;;;;;1.13;1.00;;;9.10;99.90;;;;;;5097884;28;20589;-77
2023/04/02 15:42:16;;;;;;;0.83;0.80;;;8.90;99.90;;;;;;5097519;28;20254;-76
2023/04/02 16:19:06;;;;;;;1.37;1.07;;;8.50;99.90;;;;;;5112023;27;20597;-76
2023/04/02 16:36:37;;;;;;;0.90;0.90;;;8.30;99.90;;;;;;5132329;27;20261;-76
2023/04/02 16:47:11;;;;;;;1.50;1.40;;;8.00;99.90;;;;;;5132582;27;20279;-77
2023/04/02 16:58:05;;;;;;;2.33;1.70;;;7.60;99.90;;;;;;5132920;27;20267;-75
